sensor_id;sensor_type;location;lat;lon;timestamp;P1;durP1;ratioP1;P2;durP2;ratioP2
3993;SDS011;2011;48.238;13.948;2022-08-25T00:01:07;18.10;;;10.37;;
3993;SDS011;2011;48.238;13.948;2022-08-25T00:03:35;17.03;;;10.47;;
3993;SDS011;2011;48.238;13.948;2022-08-25T00:06:02;14.73;;;9.80;;
3993;SDS011;2011;48.238;13.948;2022-08-25T00:08:30;14.90;;;10.00;;
3993;SDS011;2011;48.238;13.948;2022-08-25T00:10:59;17.57;;;10.50;;
3993;SDS011;2011;48.238;13.948;2022-08-25T00:13:27;14.30;;;10.20;;
3993;SDS011;2011;48.238;13.948;2022-08-25T00:15:54;14.37;;;10.77;;
3993;SDS011;2011;48.238;13.948;2022-08-25T00:18:21;21.30;;;10.63;;
3993;SDS011;2011;48.238;13.948;2022-08-25T00:20:49;14.97;;;9.93;;
3993;SDS011;2011;48.238;13.948;2022-08-25T00:23:16;18.57;;;11.27;;
3993;SDS011;2011;48.238;13.948;2022-08-25T00:25:43;19.40;;;11.20;;
3993;SDS011;2011;48.238;13.948;2022-08-25T00:28:10;16.57;;;10.10;;
3993;SDS011;2011;48.238;13.948;2022-08-25T00:30:39;15.80;;;10.10;;
3993;SDS011;2011;48.238;13.948;2022-08-25T00:33:06;21.93;;;9.97;;
3993;SDS011;2011;48.238;13.948;2022-08-25T00:35:33;18.87;;;11.33;;
3993;SDS011;2011;48.238;13.948;2022-08-25T00:38:01;18.60;;;9.80;;
3993;SDS011;2011;48.238;13.948;2022-08-25T00:40:28;15.37;;;9.10;;
3993;SDS011;2011;48.238;13.948;2022-08-25T00:42:55;15.10;;;9.40;;
3993;SDS011;2011;48.238;13.948;2022-08-25T00:45:22;16.03;;;9.00;;
3993;SDS011;2011;48.238;13.948;2022-08-25T00:47:51;17.53;;;9.20;;
3993;SDS011;2011;48.238;13.948;2022-08-25T00:50:18;18.83;;;9.37;;
3993;SDS011;2011;48.238;13.948;2022-08-25T00:52:47;15.93;;;8.73;;
3993;SDS011;2011;48.238;13.948;2022-08-25T00:55:17;15.40;;;9.60;;
3993;SDS011;2011;48.238;13.948;2022-08-25T00:57:49;20.93;;;9.53;;
3993;SDS011;2011;48.238;13.948;2022-08-25T01:00:20;22.57;;;10.63;;
3993;SDS011;2011;48.238;13.948;2022-08-25T01:02:53;23.47;;;10.50;;
3993;SDS011;2011;48.238;13.948;2022-08-25T01:05:21;21.77;;;10.70;;
3993;SDS011;2011;48.238;13.948;2022-08-25T01:07:51;17.97;;;11.20;;
3993;SDS011;2011;48.238;13.948;2022-08-25T01:10:19;24.50;;;11.23;;
3993;SDS011;2011;48.238;13.948;2022-08-25T01:12:48;18.43;;;11.33;;
3993;SDS011;2011;48.238;13.948;2022-08-25T01:15:15;18.77;;;11.20;;
3993;SDS011;2011;48.238;13.948;2022-08-25T01:17:46;18.03;;;11.10;;
3993;SDS011;2011;48.238;13.948;2022-08-25T01:20:16;19.17;;;11.00;;
3993;SDS011;2011;48.238;13.948;2022-08-25T01:22:46;20.20;;;12.90;;
3993;SDS011;2011;48.238;13.948;2022-08-25T01:25:19;15.03;;;10.00;;
3993;SDS011;2011;48.238;13.948;2022-08-25T01:27:50;21.90;;;10.90;;
3993;SDS011;2011;48.238;13.948;2022-08-25T01:30:17;17.23;;;11.73;;
3993;SDS011;2011;48.238;13.948;2022-08-25T01:32:45;19.43;;;11.70;;
3993;SDS011;2011;48.238;13.948;2022-08-25T01:35:12;20.00;;;12.97;;
3993;SDS011;2011;48.238;13.948;2022-08-25T01:37:39;19.63;;;12.40;;
3993;SDS011;2011;48.238;13.948;2022-08-25T01:40:08;21.10;;;12.10;;
3993;SDS011;2011;48.238;13.948;2022-08-25T01:42:37;20.63;;;11.43;;
3993;SDS011;2011;48.238;13.948;2022-08-25T01:45:13;18.80;;;10.70;;
3993;SDS011;2011;48.238;13.948;2022-08-25T01:47:40;16.43;;;10.43;;
3993;SDS011;2011;48.238;13.948;2022-08-25T01:50:07;18.33;;;10.47;;
3993;SDS011;2011;48.238;13.948;2022-08-25T01:52:36;14.70;;;9.93;;
3993;SDS011;2011;48.238;13.948;2022-08-25T01:55:11;23.10;;;9.50;;
3993;SDS011;2011;48.238;13.948;2022-08-25T01:57:38;24.03;;;9.40;;
3993;SDS011;2011;48.238;13.948;2022-08-25T02:00:05;21.67;;;10.50;;
3993;SDS011;2011;48.238;13.948;2022-08-25T02:02:34;18.43;;;10.73;;
3993;SDS011;2011;48.238;13.948;2022-08-25T02:05:01;15.83;;;9.80;;
3993;SDS011;2011;48.238;13.948;2022-08-25T02:07:28;14.83;;;9.57;;
3993;SDS011;2011;48.238;13.948;2022-08-25T02:09:55;19.33;;;8.50;;
3993;SDS011;2011;48.238;13.948;2022-08-25T02:12:24;15.70;;;7.80;;
3993;SDS011;2011;48.238;13.948;2022-08-25T02:14:51;10.70;;;7.77;;
3993;SDS011;2011;48.238;13.948;2022-08-25T02:17:18;16.93;;;10.17;;
3993;SDS011;2011;48.238;13.948;2022-08-25T02:19:45;14.13;;;9.30;;
3993;SDS011;2011;48.238;13.948;2022-08-25T02:22:12;18.13;;;10.17;;
3993;SDS011;2011;48.238;13.948;2022-08-25T02:24:38;16.00;;;10.30;;
3993;SDS011;2011;48.238;13.948;2022-08-25T02:27:06;20.63;;;9.10;;
3993;SDS011;2011;48.238;13.948;2022-08-25T02:29:35;20.53;;;10.13;;
3993;SDS011;2011;48.238;13.948;2022-08-25T02:32:02;16.37;;;9.40;;
3993;SDS011;2011;48.238;13.948;2022-08-25T02:34:30;20.63;;;10.63;;
3993;SDS011;2011;48.238;13.948;2022-08-25T02:36:57;16.07;;;10.50;;
3993;SDS011;2011;48.238;13.948;2022-08-25T02:39:24;16.33;;;10.23;;
3993;SDS011;2011;48.238;13.948;2022-08-25T02:41:51;19.60;;;11.80;;
3993;SDS011;2011;48.238;13.948;2022-08-25T02:44:18;14.27;;;9.97;;
3993;SDS011;2011;48.238;13.948;2022-08-25T02:46:46;18.07;;;10.40;;
3993;SDS011;2011;48.238;13.948;2022-08-25T02:49:13;16.90;;;10.17;;
3993;SDS011;2011;48.238;13.948;2022-08-25T02:51:40;14.73;;;9.00;;
3993;SDS011;2011;48.238;13.948;2022-08-25T02:54:07;18.63;;;10.27;;
3993;SDS011;2011;48.238;13.948;2022-08-25T02:56:34;14.90;;;10.20;;
3993;SDS011;2011;48.238;13.948;2022-08-25T02:59:01;23.83;;;10.90;;
3993;SDS011;2011;48.238;13.948;2022-08-25T03:01:28;27.47;;;11.70;;
3993;SDS011;2011;48.238;13.948;2022-08-25T03:03:58;26.30;;;11.33;;
3993;SDS011;2011;48.238;13.948;2022-08-25T03:06:25;20.40;;;12.47;;
3993;SDS011;2011;48.238;13.948;2022-08-25T03:08:52;18.87;;;12.60;;
3993;SDS011;2011;48.238;13.948;2022-08-25T03:11:19;16.37;;;10.37;;
3993;SDS011;2011;48.238;13.948;2022-08-25T03:13:48;14.50;;;10.10;;
3993;SDS011;2011;48.238;13.948;2022-08-25T03:16:15;23.43;;;12.40;;
3993;SDS011;2011;48.238;13.948;2022-08-25T03:18:42;16.27;;;10.20;;
3993;SDS011;2011;48.238;13.948;2022-08-25T03:21:10;20.10;;;10.73;;
3993;SDS011;2011;48.238;13.948;2022-08-25T03:23:38;13.30;;;8.43;;
3993;SDS011;2011;48.238;13.948;2022-08-25T03:26:06;21.10;;;10.23;;
3993;SDS011;2011;48.238;13.948;2022-08-25T03:28:51;16.80;;;9.63;;
3993;SDS011;2011;48.238;13.948;2022-08-25T03:31:19;23.87;;;11.97;;
3993;SDS011;2011;48.238;13.948;2022-08-25T03:33:47;18.50;;;11.73;;
3993;SDS011;2011;48.238;13.948;2022-08-25T03:36:15;17.10;;;11.30;;
3993;SDS011;2011;48.238;13.948;2022-08-25T03:38:42;20.70;;;12.10;;
3993;SDS011;2011;48.238;13.948;2022-08-25T03:41:10;30.30;;;14.00;;
3993;SDS011;2011;48.238;13.948;2022-08-25T03:43:40;24.13;;;12.90;;
3993;SDS011;2011;48.238;13.948;2022-08-25T03:46:07;20.77;;;12.17;;
3993;SDS011;2011;48.238;13.948;2022-08-25T03:48:34;27.50;;;12.73;;
3993;SDS011;2011;48.238;13.948;2022-08-25T03:51:01;19.43;;;10.30;;
3993;SDS011;2011;48.238;13.948;2022-08-25T03:53:30;16.23;;;10.40;;
3993;SDS011;2011;48.238;13.948;2022-08-25T03:55:57;15.77;;;10.00;;
3993;SDS011;2011;48.238;13.948;2022-08-25T03:58:24;17.30;;;10.10;;
3993;SDS011;2011;48.238;13.948;2022-08-25T04:00:51;21.13;;;9.30;;
3993;SDS011;2011;48.238;13.948;2022-08-25T04:03:19;25.57;;;11.23;;
3993;SDS011;2011;48.238;13.948;2022-08-25T04:05:46;21.30;;;12.20;;
3993;SDS011;2011;48.238;13.948;2022-08-25T04:08:13;20.30;;;13.23;;
3993;SDS011;2011;48.238;13.948;2022-08-25T04:10:41;32.87;;;20.00;;
3993;SDS011;2011;48.238;13.948;2022-08-25T04:13:08;32.30;;;17.80;;
3993;SDS011;2011;48.238;13.948;2022-08-25T04:15:37;34.77;;;19.47;;
3993;SDS011;2011;48.238;13.948;2022-08-25T04:18:08;38.23;;;22.33;;
3993;SDS011;2011;48.238;13.948;2022-08-25T04:20:37;45.60;;;25.60;;
3993;SDS011;2011;48.238;13.948;2022-08-25T04:23:05;55.00;;;30.57;;
3993;SDS011;2011;48.238;13.948;2022-08-25T04:25:32;59.43;;;30.47;;
3993;SDS011;2011;48.238;13.948;2022-08-25T04:28:00;59.03;;;29.60;;
3993;SDS011;2011;48.238;13.948;2022-08-25T04:30:28;76.70;;;37.50;;
3993;SDS011;2011;48.238;13.948;2022-08-25T04:32:55;74.67;;;36.43;;
3993;SDS011;2011;48.238;13.948;2022-08-25T04:35:21;52.20;;;25.20;;
3993;SDS011;2011;48.238;13.948;2022-08-25T04:37:49;80.00;;;40.30;;
3993;SDS011;2011;48.238;13.948;2022-08-25T04:40:15;63.03;;;28.60;;
3993;SDS011;2011;48.238;13.948;2022-08-25T04:42:42;28.20;;;17.50;;
3993;SDS011;2011;48.238;13.948;2022-08-25T04:45:11;26.43;;;18.10;;
3993;SDS011;2011;48.238;13.948;2022-08-25T04:47:38;31.97;;;17.47;;
3993;SDS011;2011;48.238;13.948;2022-08-25T04:50:06;20.47;;;11.53;;
3993;SDS011;2011;48.238;13.948;2022-08-25T04:52:33;16.73;;;9.77;;
3993;SDS011;2011;48.238;13.948;2022-08-25T04:55:00;18.60;;;10.83;;
3993;SDS011;2011;48.238;13.948;2022-08-25T04:57:27;23.83;;;10.50;;
3993;SDS011;2011;48.238;13.948;2022-08-25T04:59:54;21.97;;;9.43;;
3993;SDS011;2011;48.238;13.948;2022-08-25T05:02:23;25.50;;;11.13;;
3993;SDS011;2011;48.238;13.948;2022-08-25T05:04:50;25.87;;;11.50;;
3993;SDS011;2011;48.238;13.948;2022-08-25T05:07:17;31.00;;;12.00;;
3993;SDS011;2011;48.238;13.948;2022-08-25T05:09:44;24.57;;;13.20;;
3993;SDS011;2011;48.238;13.948;2022-08-25T05:12:11;30.40;;;15.23;;
3993;SDS011;2011;48.238;13.948;2022-08-25T05:14:38;26.30;;;13.80;;
3993;SDS011;2011;48.238;13.948;2022-08-25T05:17:05;34.53;;;16.20;;
3993;SDS011;2011;48.238;13.948;2022-08-25T05:19:33;30.40;;;16.70;;
3993;SDS011;2011;48.238;13.948;2022-08-25T05:22:01;26.43;;;15.33;;
3993;SDS011;2011;48.238;13.948;2022-08-25T05:24:28;31.80;;;16.80;;
3993;SDS011;2011;48.238;13.948;2022-08-25T05:26:55;29.70;;;17.63;;
3993;SDS011;2011;48.238;13.948;2022-08-25T05:29:22;27.00;;;16.50;;
3993;SDS011;2011;48.238;13.948;2022-08-25T05:31:52;30.17;;;17.37;;
3993;SDS011;2011;48.238;13.948;2022-08-25T05:34:19;20.17;;;12.33;;
3993;SDS011;2011;48.238;13.948;2022-08-25T05:36:48;22.27;;;11.77;;
3993;SDS011;2011;48.238;13.948;2022-08-25T05:39:15;36.03;;;13.70;;
3993;SDS011;2011;48.238;13.948;2022-08-25T05:41:42;22.60;;;14.60;;
3993;SDS011;2011;48.238;13.948;2022-08-25T05:44:09;21.57;;;14.03;;
3993;SDS011;2011;48.238;13.948;2022-08-25T05:46:37;29.63;;;15.60;;
3993;SDS011;2011;48.238;13.948;2022-08-25T05:49:04;27.73;;;16.83;;
3993;SDS011;2011;48.238;13.948;2022-08-25T05:51:31;22.53;;;15.40;;
3993;SDS011;2011;48.238;13.948;2022-08-25T05:54:00;23.80;;;15.47;;
3993;SDS011;2011;48.238;13.948;2022-08-25T05:56:28;26.10;;;14.17;;
3993;SDS011;2011;48.238;13.948;2022-08-25T05:58:55;30.80;;;14.70;;
3993;SDS011;2011;48.238;13.948;2022-08-25T06:01:24;23.67;;;16.83;;
3993;SDS011;2011;48.238;13.948;2022-08-25T06:04:10;22.27;;;12.53;;
3993;SDS011;2011;48.238;13.948;2022-08-25T06:06:37;21.30;;;13.30;;
3993;SDS011;2011;48.238;13.948;2022-08-25T06:09:06;20.23;;;12.63;;
3993;SDS011;2011;48.238;13.948;2022-08-25T06:11:35;18.27;;;11.60;;
3993;SDS011;2011;48.238;13.948;2022-08-25T06:14:03;26.70;;;13.20;;
3993;SDS011;2011;48.238;13.948;2022-08-25T06:16:31;18.40;;;12.83;;
3993;SDS011;2011;48.238;13.948;2022-08-25T06:18:58;20.50;;;12.67;;
3993;SDS011;2011;48.238;13.948;2022-08-25T06:21:25;23.60;;;13.60;;
3993;SDS011;2011;48.238;13.948;2022-08-25T06:23:53;34.87;;;12.63;;
3993;SDS011;2011;48.238;13.948;2022-08-25T06:26:21;18.20;;;12.77;;
3993;SDS011;2011;48.238;13.948;2022-08-25T06:28:49;22.63;;;13.03;;
3993;SDS011;2011;48.238;13.948;2022-08-25T06:31:16;22.97;;;13.37;;
3993;SDS011;2011;48.238;13.948;2022-08-25T06:33:44;22.90;;;13.60;;
3993;SDS011;2011;48.238;13.948;2022-08-25T06:36:11;22.77;;;13.07;;
3993;SDS011;2011;48.238;13.948;2022-08-25T06:38:39;26.37;;;15.03;;
3993;SDS011;2011;48.238;13.948;2022-08-25T06:41:07;22.17;;;15.40;;
3993;SDS011;2011;48.238;13.948;2022-08-25T06:43:36;25.83;;;14.70;;
3993;SDS011;2011;48.238;13.948;2022-08-25T06:46:07;29.40;;;15.57;;
3993;SDS011;2011;48.238;13.948;2022-08-25T06:48:35;28.90;;;16.73;;
3993;SDS011;2011;48.238;13.948;2022-08-25T06:51:03;25.07;;;15.37;;
3993;SDS011;2011;48.238;13.948;2022-08-25T06:53:31;22.63;;;15.27;;
3993;SDS011;2011;48.238;13.948;2022-08-25T06:55:59;25.70;;;15.57;;
3993;SDS011;2011;48.238;13.948;2022-08-25T06:58:26;23.70;;;15.17;;
3993;SDS011;2011;48.238;13.948;2022-08-25T07:00:55;23.73;;;14.27;;
3993;SDS011;2011;48.238;13.948;2022-08-25T07:03:22;24.13;;;14.17;;
3993;SDS011;2011;48.238;13.948;2022-08-25T07:05:50;23.27;;;15.10;;
3993;SDS011;2011;48.238;13.948;2022-08-25T07:08:17;26.90;;;16.03;;
3993;SDS011;2011;48.238;13.948;2022-08-25T07:10:44;23.10;;;14.50;;
3993;SDS011;2011;48.238;13.948;2022-08-25T07:13:11;27.10;;;15.13;;
3993;SDS011;2011;48.238;13.948;2022-08-25T07:15:39;23.70;;;13.67;;
3993;SDS011;2011;48.238;13.948;2022-08-25T07:18:08;22.00;;;13.57;;
3993;SDS011;2011;48.238;13.948;2022-08-25T07:20:36;22.33;;;15.00;;
3993;SDS011;2011;48.238;13.948;2022-08-25T07:23:04;29.87;;;14.67;;
3993;SDS011;2011;48.238;13.948;2022-08-25T07:25:31;21.60;;;13.20;;
3993;SDS011;2011;48.238;13.948;2022-08-25T07:27:59;21.20;;;14.20;;
3993;SDS011;2011;48.238;13.948;2022-08-25T07:30:26;25.53;;;14.37;;
3993;SDS011;2011;48.238;13.948;2022-08-25T07:32:53;22.80;;;14.80;;
3993;SDS011;2011;48.238;13.948;2022-08-25T07:35:22;22.50;;;14.50;;
3993;SDS011;2011;48.238;13.948;2022-08-25T07:37:50;29.57;;;16.00;;
3993;SDS011;2011;48.238;13.948;2022-08-25T07:40:21;22.97;;;14.70;;
3993;SDS011;2011;48.238;13.948;2022-08-25T07:42:51;28.10;;;15.00;;
3993;SDS011;2011;48.238;13.948;2022-08-25T07:45:19;22.93;;;14.83;;
3993;SDS011;2011;48.238;13.948;2022-08-25T07:47:54;26.47;;;14.73;;
3993;SDS011;2011;48.238;13.948;2022-08-25T07:50:23;32.43;;;14.97;;
3993;SDS011;2011;48.238;13.948;2022-08-25T07:52:49;22.90;;;14.93;;
3993;SDS011;2011;48.238;13.948;2022-08-25T07:55:17;30.83;;;15.50;;
3993;SDS011;2011;48.238;13.948;2022-08-25T07:57:44;31.30;;;15.50;;
3993;SDS011;2011;48.238;13.948;2022-08-25T08:00:13;26.87;;;16.50;;
3993;SDS011;2011;48.238;13.948;2022-08-25T08:02:42;27.30;;;14.60;;
3993;SDS011;2011;48.238;13.948;2022-08-25T08:05:09;23.40;;;13.60;;
3993;SDS011;2011;48.238;13.948;2022-08-25T08:07:40;30.90;;;14.73;;
3993;SDS011;2011;48.238;13.948;2022-08-25T08:10:08;29.50;;;15.60;;
3993;SDS011;2011;48.238;13.948;2022-08-25T08:12:36;27.07;;;13.90;;
3993;SDS011;2011;48.238;13.948;2022-08-25T08:15:04;27.10;;;14.27;;
3993;SDS011;2011;48.238;13.948;2022-08-25T08:17:32;29.67;;;14.50;;
3993;SDS011;2011;48.238;13.948;2022-08-25T08:19:59;36.97;;;13.57;;
3993;SDS011;2011;48.238;13.948;2022-08-25T08:22:28;26.53;;;14.00;;
3993;SDS011;2011;48.238;13.948;2022-08-25T08:24:56;20.30;;;12.33;;
3993;SDS011;2011;48.238;13.948;2022-08-25T08:27:23;34.33;;;12.90;;
3993;SDS011;2011;48.238;13.948;2022-08-25T08:29:50;31.03;;;14.83;;
3993;SDS011;2011;48.238;13.948;2022-08-25T08:32:18;23.80;;;13.80;;
3993;SDS011;2011;48.238;13.948;2022-08-25T08:34:45;29.43;;;13.50;;
3993;SDS011;2011;48.238;13.948;2022-08-25T08:37:13;35.00;;;13.47;;
3993;SDS011;2011;48.238;13.948;2022-08-25T08:39:41;28.07;;;12.00;;
3993;SDS011;2011;48.238;13.948;2022-08-25T08:42:16;37.90;;;13.67;;
3993;SDS011;2011;48.238;13.948;2022-08-25T08:44:58;32.07;;;13.50;;
3993;SDS011;2011;48.238;13.948;2022-08-25T08:47:36;26.27;;;13.00;;
3993;SDS011;2011;48.238;13.948;2022-08-25T08:50:17;22.50;;;12.40;;
3993;SDS011;2011;48.238;13.948;2022-08-25T08:52:53;33.83;;;13.87;;
3993;SDS011;2011;48.238;13.948;2022-08-25T08:55:30;31.23;;;12.90;;
3993;SDS011;2011;48.238;13.948;2022-08-25T08:58:00;38.03;;;14.00;;
3993;SDS011;2011;48.238;13.948;2022-08-25T09:00:32;31.63;;;14.10;;
3993;SDS011;2011;48.238;13.948;2022-08-25T09:03:05;27.53;;;12.57;;
3993;SDS011;2011;48.238;13.948;2022-08-25T09:05:37;35.17;;;13.73;;
3993;SDS011;2011;48.238;13.948;2022-08-25T09:08:10;37.67;;;14.63;;
3993;SDS011;2011;48.238;13.948;2022-08-25T09:10:40;32.10;;;14.20;;
3993;SDS011;2011;48.238;13.948;2022-08-25T09:13:20;29.03;;;12.63;;
3993;SDS011;2011;48.238;13.948;2022-08-25T09:15:59;29.63;;;13.60;;
3993;SDS011;2011;48.238;13.948;2022-08-25T09:18:49;33.93;;;13.40;;
3993;SDS011;2011;48.238;13.948;2022-08-25T09:21:22;32.50;;;12.90;;
3993;SDS011;2011;48.238;13.948;2022-08-25T09:24:03;35.50;;;13.70;;
3993;SDS011;2011;48.238;13.948;2022-08-25T09:26:41;32.60;;;14.17;;
3993;SDS011;2011;48.238;13.948;2022-08-25T09:29:19;36.60;;;13.70;;
3993;SDS011;2011;48.238;13.948;2022-08-25T09:31:48;30.73;;;13.57;;
3993;SDS011;2011;48.238;13.948;2022-08-25T09:34:16;25.83;;;12.93;;
3993;SDS011;2011;48.238;13.948;2022-08-25T09:36:44;28.20;;;13.30;;
3993;SDS011;2011;48.238;13.948;2022-08-25T09:39:15;24.73;;;12.43;;
3993;SDS011;2011;48.238;13.948;2022-08-25T09:41:44;25.10;;;13.23;;
3993;SDS011;2011;48.238;13.948;2022-08-25T09:44:22;25.13;;;12.30;;
3993;SDS011;2011;48.238;13.948;2022-08-25T09:47:00;24.80;;;11.60;;
3993;SDS011;2011;48.238;13.948;2022-08-25T09:49:33;29.53;;;12.90;;
3993;SDS011;2011;48.238;13.948;2022-08-25T09:54:52;34.30;;;13.30;;
3993;SDS011;2011;48.238;13.948;2022-08-25T09:57:26;28.60;;;11.00;;
3993;SDS011;2011;48.238;13.948;2022-08-25T09:59:56;17.50;;;11.13;;
3993;SDS011;2011;48.238;13.948;2022-08-25T10:02:36;16.60;;;9.50;;
3993;SDS011;2011;48.238;13.948;2022-08-25T10:05:15;15.67;;;10.30;;
3993;SDS011;2011;48.238;13.948;2022-08-25T10:07:48;25.03;;;12.17;;
3993;SDS011;2011;48.238;13.948;2022-08-25T10:10:21;31.27;;;11.43;;
3993;SDS011;2011;48.238;13.948;2022-08-25T10:12:51;16.80;;;9.73;;
3993;SDS011;2011;48.238;13.948;2022-08-25T10:15:22;22.10;;;10.00;;
3993;SDS011;2011;48.238;13.948;2022-08-25T10:17:51;15.60;;;10.17;;
3993;SDS011;2011;48.238;13.948;2022-08-25T10:20:19;17.70;;;10.37;;
3993;SDS011;2011;48.238;13.948;2022-08-25T10:22:48;18.73;;;9.80;;
3993;SDS011;2011;48.238;13.948;2022-08-25T10:25:20;21.00;;;9.70;;
3993;SDS011;2011;48.238;13.948;2022-08-25T10:27:53;15.40;;;9.00;;
3993;SDS011;2011;48.238;13.948;2022-08-25T10:30:35;16.37;;;9.50;;
3993;SDS011;2011;48.238;13.948;2022-08-25T10:33:12;16.60;;;10.03;;
3993;SDS011;2011;48.238;13.948;2022-08-25T10:35:46;16.17;;;9.20;;
3993;SDS011;2011;48.238;13.948;2022-08-25T10:38:26;23.50;;;9.90;;
3993;SDS011;2011;48.238;13.948;2022-08-25T10:41:01;24.97;;;10.20;;
3993;SDS011;2011;48.238;13.948;2022-08-25T10:43:42;17.80;;;9.90;;
3993;SDS011;2011;48.238;13.948;2022-08-25T10:46:19;25.27;;;10.30;;
3993;SDS011;2011;48.238;13.948;2022-08-25T10:49:00;20.27;;;10.13;;
3993;SDS011;2011;48.238;13.948;2022-08-25T10:51:37;19.53;;;10.70;;
3993;SDS011;2011;48.238;13.948;2022-08-25T10:54:19;20.17;;;10.30;;
3993;SDS011;2011;48.238;13.948;2022-08-25T10:56:57;34.43;;;10.63;;
3993;SDS011;2011;48.238;13.948;2022-08-25T11:05:29;14.73;;;8.40;;
3993;SDS011;2011;48.238;13.948;2022-08-25T11:08:04;14.57;;;8.73;;
3993;SDS011;2011;48.238;13.948;2022-08-25T11:10:39;15.43;;;9.00;;
3993;SDS011;2011;48.238;13.948;2022-08-25T11:13:12;17.53;;;9.23;;
3993;SDS011;2011;48.238;13.948;2022-08-25T11:15:48;21.20;;;10.27;;
3993;SDS011;2011;48.238;13.948;2022-08-25T11:18:19;21.27;;;9.40;;
3993;SDS011;2011;48.238;13.948;2022-08-25T11:20:49;25.00;;;10.90;;
3993;SDS011;2011;48.238;13.948;2022-08-25T11:23:23;23.87;;;12.90;;
3993;SDS011;2011;48.238;13.948;2022-08-25T11:25:56;21.27;;;12.30;;
3993;SDS011;2011;48.238;13.948;2022-08-25T11:28:29;24.40;;;12.43;;
3993;SDS011;2011;48.238;13.948;2022-08-25T11:31:00;29.23;;;12.80;;
3993;SDS011;2011;48.238;13.948;2022-08-25T11:33:30;26.80;;;14.13;;
3993;SDS011;2011;48.238;13.948;2022-08-25T11:35:58;23.30;;;11.97;;
3993;SDS011;2011;48.238;13.948;2022-08-25T11:38:32;25.03;;;13.93;;
3993;SDS011;2011;48.238;13.948;2022-08-25T11:41:13;29.00;;;13.17;;
3993;SDS011;2011;48.238;13.948;2022-08-25T11:43:51;26.10;;;12.37;;
3993;SDS011;2011;48.238;13.948;2022-08-25T11:46:39;31.90;;;13.10;;
3993;SDS011;2011;48.238;13.948;2022-08-25T11:55:13;21.67;;;11.73;;
3993;SDS011;2011;48.238;13.948;2022-08-25T11:57:43;26.47;;;11.63;;
3993;SDS011;2011;48.238;13.948;2022-08-25T12:00:13;27.10;;;10.90;;
3993;SDS011;2011;48.238;13.948;2022-08-25T12:03:00;25.00;;;10.93;;
3993;SDS011;2011;48.238;13.948;2022-08-25T12:06:18;24.43;;;9.63;;
3993;SDS011;2011;48.238;13.948;2022-08-25T12:08:52;19.00;;;8.77;;
3993;SDS011;2011;48.238;13.948;2022-08-25T12:11:46;21.03;;;9.00;;
3993;SDS011;2011;48.238;13.948;2022-08-25T12:14:31;18.20;;;8.20;;
3993;SDS011;2011;48.238;13.948;2022-08-25T12:17:22;18.47;;;7.00;;
3993;SDS011;2011;48.238;13.948;2022-08-25T12:20:02;24.23;;;8.60;;
3993;SDS011;2011;48.238;13.948;2022-08-25T12:22:52;13.80;;;7.33;;
3993;SDS011;2011;48.238;13.948;2022-08-25T12:25:26;26.53;;;7.90;;
3993;SDS011;2011;48.238;13.948;2022-08-25T12:28:10;32.63;;;8.40;;
3993;SDS011;2011;48.238;13.948;2022-08-25T12:30:53;25.03;;;8.93;;
3993;SDS011;2011;48.238;13.948;2022-08-25T12:33:28;15.50;;;8.00;;
3993;SDS011;2011;48.238;13.948;2022-08-25T12:36:05;18.73;;;8.50;;
3993;SDS011;2011;48.238;13.948;2022-08-25T12:38:37;19.80;;;8.40;;
3993;SDS011;2011;48.238;13.948;2022-08-25T12:41:09;18.23;;;8.90;;
3993;SDS011;2011;48.238;13.948;2022-08-25T12:43:38;18.27;;;9.10;;
3993;SDS011;2011;48.238;13.948;2022-08-25T12:49:02;13.90;;;8.20;;
3993;SDS011;2011;48.238;13.948;2022-08-25T12:51:42;18.83;;;9.40;;
3993;SDS011;2011;48.238;13.948;2022-08-25T12:54:23;23.20;;;10.00;;
3993;SDS011;2011;48.238;13.948;2022-08-25T12:56:58;21.03;;;10.17;;
3993;SDS011;2011;48.238;13.948;2022-08-25T12:59:34;30.87;;;8.83;;
3993;SDS011;2011;48.238;13.948;2022-08-25T13:05:02;17.00;;;8.40;;
3993;SDS011;2011;48.238;13.948;2022-08-25T13:07:46;20.27;;;9.53;;
3993;SDS011;2011;48.238;13.948;2022-08-25T13:10:28;22.70;;;9.37;;
3993;SDS011;2011;48.238;13.948;2022-08-25T13:13:04;26.17;;;11.07;;
3993;SDS011;2011;48.238;13.948;2022-08-25T13:15:39;24.80;;;10.03;;
3993;SDS011;2011;48.238;13.948;2022-08-25T13:18:13;20.27;;;9.50;;
3993;SDS011;2011;48.238;13.948;2022-08-25T13:20:45;26.33;;;10.00;;
3993;SDS011;2011;48.238;13.948;2022-08-25T13:23:15;21.07;;;10.37;;
3993;SDS011;2011;48.238;13.948;2022-08-25T13:25:49;23.57;;;9.40;;
3993;SDS011;2011;48.238;13.948;2022-08-25T13:28:19;21.37;;;9.63;;
3993;SDS011;2011;48.238;13.948;2022-08-25T13:30:58;19.60;;;9.47;;
3993;SDS011;2011;48.238;13.948;2022-08-25T13:33:28;18.33;;;9.17;;
3993;SDS011;2011;48.238;13.948;2022-08-25T13:35:57;22.30;;;8.77;;
3993;SDS011;2011;48.238;13.948;2022-08-25T13:38:44;18.97;;;8.47;;
3993;SDS011;2011;48.238;13.948;2022-08-25T13:41:17;19.70;;;8.87;;
3993;SDS011;2011;48.238;13.948;2022-08-25T13:43:56;20.70;;;8.53;;
3993;SDS011;2011;48.238;13.948;2022-08-25T13:46:23;15.00;;;8.20;;
3993;SDS011;2011;48.238;13.948;2022-08-25T13:49:00;24.37;;;8.47;;
3993;SDS011;2011;48.238;13.948;2022-08-25T13:51:29;22.23;;;9.60;;
3993;SDS011;2011;48.238;13.948;2022-08-25T13:53:58;18.67;;;8.23;;
3993;SDS011;2011;48.238;13.948;2022-08-25T13:56:31;38.93;;;10.07;;
3993;SDS011;2011;48.238;13.948;2022-08-25T13:59:00;23.57;;;9.00;;
3993;SDS011;2011;48.238;13.948;2022-08-25T14:01:30;24.00;;;9.20;;
3993;SDS011;2011;48.238;13.948;2022-08-25T14:07:03;24.10;;;9.20;;
3993;SDS011;2011;48.238;13.948;2022-08-25T14:09:36;21.67;;;9.47;;
3993;SDS011;2011;48.238;13.948;2022-08-25T14:12:06;20.80;;;8.73;;
3993;SDS011;2011;48.238;13.948;2022-08-25T14:14:34;16.97;;;8.67;;
3993;SDS011;2011;48.238;13.948;2022-08-25T14:17:03;17.10;;;8.67;;
3993;SDS011;2011;48.238;13.948;2022-08-25T14:19:32;18.40;;;8.80;;
3993;SDS011;2011;48.238;13.948;2022-08-25T14:22:00;21.40;;;9.00;;
3993;SDS011;2011;48.238;13.948;2022-08-25T14:24:30;19.77;;;9.70;;
3993;SDS011;2011;48.238;13.948;2022-08-25T14:27:00;22.63;;;9.10;;
3993;SDS011;2011;48.238;13.948;2022-08-25T14:29:29;24.23;;;9.17;;
3993;SDS011;2011;48.238;13.948;2022-08-25T14:31:57;19.07;;;8.40;;
3993;SDS011;2011;48.238;13.948;2022-08-25T14:34:26;16.67;;;9.17;;
3993;SDS011;2011;48.238;13.948;2022-08-25T14:36:55;18.17;;;8.53;;
3993;SDS011;2011;48.238;13.948;2022-08-25T14:39:24;20.93;;;8.80;;
3993;SDS011;2011;48.238;13.948;2022-08-25T14:41:51;20.73;;;10.10;;
3993;SDS011;2011;48.238;13.948;2022-08-25T14:44:19;19.83;;;9.70;;
3993;SDS011;2011;48.238;13.948;2022-08-25T14:46:49;18.10;;;9.90;;
3993;SDS011;2011;48.238;13.948;2022-08-25T14:49:19;23.30;;;9.43;;
3993;SDS011;2011;48.238;13.948;2022-08-25T14:51:48;18.30;;;9.40;;
3993;SDS011;2011;48.238;13.948;2022-08-25T14:54:15;19.90;;;9.10;;
3993;SDS011;2011;48.238;13.948;2022-08-25T14:56:44;21.03;;;8.37;;
3993;SDS011;2011;48.238;13.948;2022-08-25T14:59:12;20.63;;;9.73;;
3993;SDS011;2011;48.238;13.948;2022-08-25T15:01:40;22.07;;;9.27;;
3993;SDS011;2011;48.238;13.948;2022-08-25T15:04:10;13.73;;;8.43;;
3993;SDS011;2011;48.238;13.948;2022-08-25T15:06:40;18.13;;;8.10;;
3993;SDS011;2011;48.238;13.948;2022-08-25T15:09:08;26.67;;;8.80;;
3993;SDS011;2011;48.238;13.948;2022-08-25T15:11:36;16.60;;;8.67;;
3993;SDS011;2011;48.238;13.948;2022-08-25T15:14:05;19.07;;;8.47;;
3993;SDS011;2011;48.238;13.948;2022-08-25T15:16:35;20.23;;;8.63;;
3993;SDS011;2011;48.238;13.948;2022-08-25T15:19:04;16.00;;;7.93;;
3993;SDS011;2011;48.238;13.948;2022-08-25T15:21:33;25.53;;;8.83;;